Time;durP1;ratioP1;P1;durP2;ratioP2;P2;SDS_P1;SDS_P2;PMS_P1;PMS_P2;Temp;Humidity;BMP_temperature;BMP_pressure;BME280_temperature;BME280_humidity;BME280_pressure;Samples;Min_cycle;Max_cycle;Signal;HPM_P1;HPM_P2
2022/05/08 00:01:37;;;;;;;;;;;11.00;99.90;;;;;;5135586;27;20009;-76
2022/05/08 00:04:03;;;;;;;;;;;11.00;99.90;;;;;;5136021;27;19914;-76
2022/05/08 00:06:29;;;;;;;;;;;11.00;99.90;;;;;;5135240;27;19907;-76
2022/05/08 00:08:55;;;;;;;;;;;11.00;99.90;;;;;;5135599;27;19911;-76
2022/05/08 00:11:20;;;;;;;;;;;11.00;99.90;;;;;;5135709;27;19911;-76
2022/05/08 00:13:47;;;;;;;;;;;10.90;99.90;;;;;;5135401;27;19975;-76
2022/05/08 00:16:13;;;;;;;;;;;10.80;99.90;;;;;;5135865;27;19918;-76
2022/05/08 00:18:39;;;;;;;;;;;10.80;99.90;;;;;;5135188;27;19911;-76
2022/05/08 00:21:06;;;;;;;;;;;10.80;99.90;;;;;;5136007;27;20002;-76
2022/05/08 00:23:32;;;;;;;;;;;10.80;99.90;;;;;;5134973;27;19914;-76
2022/05/08 00:25:58;;;;;;;;;;;10.70;99.90;;;;;;5135506;27;19908;-77
2022/05/08 00:28:23;;;;;;;;;;;10.60;99.90;;;;;;5135618;27;20007;-77
2022/05/08 00:30:49;;;;;;;;;;;10.50;99.90;;;;;;5135373;27;19914;-76
2022/05/08 00:33:15;;;;;;;;;;;10.50;99.90;;;;;;5135602;27;19960;-77
2022/05/08 00:35:41;;;;;;;;;;;10.50;99.90;;;;;;5134202;27;19916;-76
2022/05/08 00:38:08;;;;;;;;;;;10.40;99.90;;;;;;5135667;27;19922;-77
2022/05/08 00:40:35;;;;;;;;;;;10.30;99.90;;;;;;5116502;27;19907;-76
2022/05/08 00:43:19;;;;;;;;;;;10.30;99.90;;;;;;5135207;27;19976;-77
2022/05/08 00:45:45;;;;;;;;;;;10.30;99.90;;;;;;5134544;27;19959;-76
2022/05/08 00:48:10;;;;;;;;;;;10.20;99.90;;;;;;5134650;27;19908;-77
2022/05/08 00:50:36;;;;;;;;;;;10.20;99.90;;;;;;5134569;27;19908;-76
2022/05/08 00:53:02;;;;;;;;;;;10.20;99.90;;;;;;5135077;27;20260;-76
2022/05/08 00:55:28;;;;;;;;;;;10.10;99.90;;;;;;5134738;27;19915;-76
2022/05/08 00:57:53;;;;;;;;;;;10.10;99.90;;;;;;5133751;27;19919;-76
2022/05/08 01:00:19;;;;;;;;;;;10.00;99.90;;;;;;5135396;27;20002;-76
2022/05/08 01:02:46;;;;;;;;;;;10.10;99.90;;;;;;5134721;27;19907;-76
2022/05/08 01:05:12;;;;;;;;;;;10.00;99.90;;;;;;5134808;27;19907;-76
2022/05/08 01:07:37;;;;;;;;;;;10.10;99.90;;;;;;5134279;27;19914;-76
2022/05/08 01:10:03;;;;;;;;;;;9.90;99.90;;;;;;5134675;27;20383;-76
2022/05/08 01:12:32;;;;;;;;;;;9.90;99.90;;;;;;5134397;27;19952;-76
2022/05/08 01:15:10;;;;;;;;;;;9.90;99.90;;;;;;5134418;27;19907;-76
2022/05/08 01:17:35;;;;;;;;;;;9.90;99.90;;;;;;5133803;27;20310;-76
2022/05/08 01:20:01;;;;;;;;;;;9.80;99.90;;;;;;5134287;27;19908;-77
2022/05/08 01:22:26;;;;;;;;;;;9.80;99.90;;;;;;5134604;27;19907;-76
2022/05/08 01:24:52;;;;;;;;;;;9.70;99.90;;;;;;5133948;27;19907;-76
2022/05/08 01:27:17;;;;;;;;;;;9.70;99.90;;;;;;5134401;27;20276;-76
2022/05/08 01:29:44;;;;;;;;;;;9.70;99.90;;;;;;5133876;27;19986;-76
2022/05/08 01:32:10;;;;;;;;;;;9.70;99.90;;;;;;5134394;27;19915;-77
2022/05/08 01:34:35;;;;;;;;;;;9.60;99.90;;;;;;5133501;27;19907;-76
2022/05/08 01:37:01;;;;;;;;;;;9.60;99.90;;;;;;5133922;27;19919;-76
2022/05/08 01:39:27;;;;;;;;;;;9.70;99.90;;;;;;5134238;27;19907;-76
2022/05/08 01:41:52;;;;;;;;;;;9.70;99.90;;;;;;5133354;27;20618;-76
2022/05/08 01:44:18;;;;;;;;;;;9.70;99.90;;;;;;5134247;27;20246;-76
2022/05/08 01:46:43;;;;;;;;;;;9.60;99.90;;;;;;5133320;27;19935;-76
2022/05/08 01:49:09;;;;;;;;;;;9.60;99.90;;;;;;5133207;27;19934;-76
2022/05/08 01:51:35;;;;;;;;;;;9.50;99.90;;;;;;5133342;27;19907;-75
2022/05/08 01:54:02;;;;;;;;;;;9.40;99.90;;;;;;5133283;27;19956;-76
2022/05/08 01:56:28;;;;;;;;;;;9.40;99.90;;;;;;5133600;27;20329;-76
2022/05/08 01:58:53;;;;;;;;;;;9.30;99.90;;;;;;5133676;27;19927;-76
2022/05/08 02:01:19;;;;;;;;;;;9.30;99.90;;;;;;5115288;27;20340;-76
2022/05/08 02:03:45;;;;;;;;;;;9.20;99.90;;;;;;5133086;27;19907;-76
2022/05/08 02:06:10;;;;;;;;;;;9.20;99.90;;;;;;5133621;27;19960;-76
2022/05/08 02:08:36;;;;;;;;;;;9.10;99.90;;;;;;5133116;27;19914;-76
2022/05/08 02:11:01;;;;;;;;;;;9.10;99.90;;;;;;5133684;28;19908;-76
2022/05/08 02:13:27;;;;;;;;;;;9.00;99.90;;;;;;5133719;28;20417;-76
2022/05/08 02:15:53;;;;;;;;;;;9.00;99.90;;;;;;5133036;28;19915;-76
2022/05/08 02:18:18;;;;;;;;;;;9.00;99.90;;;;;;5133768;28;20052;-77
2022/05/08 02:20:44;;;;;;;;;;;9.00;99.90;;;;;;5133243;28;19912;-76
2022/05/08 02:23:09;;;;;;;;;;;9.00;99.90;;;;;;5133892;28;19907;-76
2022/05/08 02:25:35;;;;;;;;;;;9.10;99.90;;;;;;5133440;28;19914;-76
2022/05/08 02:28:01;;;;;;;;;;;9.10;99.90;;;;;;5133297;28;19994;-76
2022/05/08 02:30:27;;;;;;;;;;;9.10;99.90;;;;;;5133629;28;19947;-76
2022/05/08 02:32:53;;;;;;;;;;;9.00;99.90;;;;;;5133100;28;20348;-76
2022/05/08 02:35:22;;;;;;;;;;;9.00;99.90;;;;;;5133642;28;19961;-76
2022/05/08 02:37:52;;;;;;;;;;;9.10;99.90;;;;;;5132953;28;19916;-76
2022/05/08 02:40:19;;;;;;;;;;;9.10;99.90;;;;;;5133505;28;19915;-76
2022/05/08 02:42:45;;;;;;;;;;;9.10;99.90;;;;;;5132951;28;19915;-76
2022/05/08 02:45:11;;;;;;;;;;;9.00;99.90;;;;;;5133534;28;19908;-76
2022/05/08 02:47:37;;;;;;;;;;;9.00;99.90;;;;;;5133384;28;19948;-75
2022/05/08 02:50:03;;;;;;;;;;;9.00;99.90;;;;;;5132917;28;19911;-76
2022/05/08 02:52:28;;;;;;;;;;;9.00;99.90;;;;;;5133218;28;20317;-75
2022/05/08 02:54:54;;;;;;;;;;;8.90;99.90;;;;;;5132710;28;20006;-76
2022/05/08 03:00:05;;;;;;;;;;;8.80;99.90;;;;;;5136546;27;19955;-76
2022/05/08 03:02:33;;;;;;;;;;;8.90;99.90;;;;;;5137623;27;19907;-76
2022/05/08 03:04:59;;;;;;;;;;;8.90;99.90;;;;;;5136740;27;19911;-76
2022/05/08 03:07:24;;;;;;;;;;;8.90;99.90;;;;;;5118696;27;19919;-76
2022/05/08 03:09:50;;;;;;;;;;;8.80;99.90;;;;;;5136931;27;20245;-77
2022/05/08 03:12:15;;;;;;;;;;;8.80;99.90;;;;;;5137948;27;19913;-77
2022/05/08 03:14:41;;;;;;;;;;;8.70;99.90;;;;;;5136783;27;19911;-76
2022/05/08 03:17:07;;;;;;;;;;;8.70;99.90;;;;;;5137045;27;19919;-77
2022/05/08 03:19:32;;;;;;;;;;;8.70;99.90;;;;;;5136907;27;20379;-76
2022/05/08 03:21:58;;;;;;;;;;;8.70;99.90;;;;;;5135614;27;19914;-76
2022/05/08 03:24:24;;;;;;;;;;;8.70;99.90;;;;;;5141461;27;19918;-76
2022/05/08 03:26:50;;;;;;;;;;;8.70;99.90;;;;;;5157747;27;19969;-76
2022/05/08 03:29:15;;;;;;;;;;;8.70;99.90;;;;;;5157119;27;20320;-76
2022/05/08 03:31:41;;;;;;;;;;;8.60;99.90;;;;;;5156943;27;19989;-75
2022/05/08 03:34:06;;;;;;;;;;;8.60;99.90;;;;;;5156647;27;19911;-76
2022/05/08 03:36:32;;;;;;;;;;;8.60;99.90;;;;;;5157447;27;19918;-76
2022/05/08 03:38:57;;;;;;;;;;;8.60;99.90;;;;;;5156593;27;19918;-76
2022/05/08 03:41:23;;;;;;;;;;;8.50;99.90;;;;;;5157042;27;19915;-76
2022/05/08 03:43:50;;;;;;;;;;;8.50;99.90;;;;;;5156652;27;19911;-75
2022/05/08 03:46:16;;;;;;;;;;;8.50;99.90;;;;;;5157099;27;19915;-76
2022/05/08 03:48:43;;;;;;;;;;;8.40;99.90;;;;;;5138432;27;19907;-75
2022/05/08 03:51:08;;;;;;;;;;;8.40;99.90;;;;;;5157265;27;19907;-76
2022/05/08 03:53:34;;;;;;;;;;;8.50;99.90;;;;;;5156647;27;20382;-76
2022/05/08 03:56:00;;;;;;;;;;;8.50;99.90;;;;;;5156388;27;19911;-76
2022/05/08 03:58:26;;;;;;;;;;;8.40;99.90;;;;;;5156938;27;19926;-76
2022/05/08 04:00:52;;;;;;;;;;;8.40;99.90;;;;;;5156719;27;19914;-76
2022/05/08 04:03:17;;;;;;;;;;;8.50;99.90;;;;;;5156655;27;19907;-76
2022/05/08 04:05:43;;;;;;;;;;;8.60;99.90;;;;;;5156447;27;19907;-76
2022/05/08 04:08:08;;;;;;;;;;;8.60;99.90;;;;;;5156420;27;19907;-76
2022/05/08 04:10:34;;;;;;;;;;;8.60;99.90;;;;;;5155977;27;19956;-76
2022/05/08 04:13:00;;;;;;;;;;;8.50;99.90;;;;;;5156215;27;19959;-76
2022/05/08 04:18:09;;;;;;;;;;;8.60;99.90;;;;;;5156415;27;19960;-76
2022/05/08 04:20:35;;;;;;;;;;;8.60;99.90;;;;;;5137764;27;19907;-76
2022/05/08 04:25:59;;;;;;;;;;;8.70;99.90;;;;;;5109507;27;19951;-77
2022/05/08 04:28:24;;;;;;;;;;;8.70;99.90;;;;;;5156283;27;19911;-76
2022/05/08 04:30:51;;;;;;;;;;;8.70;99.90;;;;;;5155570;27;19914;-76
2022/05/08 04:33:16;;;;;;;;;;;8.70;99.90;;;;;;5156250;27;19911;-76
2022/05/08 04:35:42;;;;;;;;;;;8.70;99.90;;;;;;5156109;27;20252;-76
2022/05/08 04:38:10;;;;;;;;;;;8.70;99.90;;;;;;5155443;27;19911;-76
2022/05/08 04:40:36;;;;;;;;;;;8.70;99.90;;;;;;5155901;27;20252;-77
2022/05/08 04:43:01;;;;;;;;;;;8.50;99.90;;;;;;5136888;27;19953;-76
2022/05/08 04:45:27;;;;;;;;;;;8.50;99.90;;;;;;5156166;27;19911;-76
2022/05/08 04:47:53;;;;;;;;;;;8.50;99.90;;;;;;5155329;27;19953;-75
2022/05/08 04:50:18;;;;;;;;;;;8.50;99.90;;;;;;5155763;27;20228;-76
2022/05/08 04:52:44;;;;;;;;;;;8.50;99.90;;;;;;5155683;27;19950;-76
2022/05/08 04:55:09;;;;;;;;;;;8.40;99.90;;;;;;5155222;27;19975;-76
2022/05/08 04:57:35;;;;;;;;;;;8.50;99.90;;;;;;5155692;27;19919;-76
2022/05/08 05:00:01;;;;;;;;;;;8.50;99.90;;;;;;5155005;27;20396;-76
2022/05/08 05:02:26;;;;;;;;;;;8.40;99.90;;;;;;5155523;27;19907;-76
2022/05/08 05:04:52;;;;;;;;;;;8.40;99.90;;;;;;5154699;27;20002;-76
2022/05/08 05:07:18;;;;;;;;;;;8.30;99.90;;;;;;5155595;27;19993;-76
2022/05/08 05:09:43;;;;;;;;;;;8.30;99.90;;;;;;5155609;27;19907;-76
2022/05/08 05:12:09;;;;;;;;;;;8.40;99.90;;;;;;5154866;27;20175;-76
2022/05/08 05:14:35;;;;;;;;;;;8.50;99.90;;;;;;5136918;27;19911;-76
2022/05/08 05:17:00;;;;;;;;;;;8.60;99.90;;;;;;5154672;27;19950;-75
2022/05/08 05:19:26;;;;;;;;;;;8.80;99.90;;;;;;5155309;27;20368;-75
2022/05/08 05:21:52;;;;;;;;;;;9.00;99.90;;;;;;5153737;27;19908;-75
2022/05/08 05:24:17;;;;;;;;;;;9.30;99.90;;;;;;5155182;27;19914;-75
2022/05/08 05:26:43;;;;;;;;;;;9.50;99.90;;;;;;5136429;27;20272;-75
2022/05/08 05:29:08;;;;;;;;;;;9.50;99.90;;;;;;5154351;27;19945;-75
2022/05/08 05:31:34;;;;;;;;;;;9.50;99.90;;;;;;5136463;27;19918;-76
2022/05/08 05:33:59;;;;;;;;;;;9.60;99.90;;;;;;5154479;27;19907;-75
2022/05/08 05:36:25;;;;;;;;;;;9.60;99.90;;;;;;5155033;27;19963;-76
2022/05/08 05:38:51;;;;;;;;;;;9.70;99.90;;;;;;5154564;27;19946;-75
2022/05/08 05:41:16;;;;;;;;;;;9.90;99.90;;;;;;5155037;27;19966;-76
2022/05/08 05:43:42;;;;;;;;;;;10.10;99.90;;;;;;5154676;27;20276;-76
2022/05/08 05:48:51;;;;;;;;;;;10.40;99.90;;;;;;5154381;27;19915;-76
2022/05/08 05:51:17;;;;;;;;;;;10.60;99.90;;;;;;5154623;27;20272;-75
2022/05/08 05:53:43;;;;;;;;;;;10.60;99.90;;;;;;5154375;27;19913;-76
2022/05/08 05:56:09;;;;;;;;;;;10.60;99.90;;;;;;5153757;27;20051;-76
2022/05/08 05:58:35;;;;;;;;;;;10.50;99.90;;;;;;5153954;27;19923;-76
2022/05/08 06:01:01;;;;;;;;;;;10.70;99.90;;;;;;5135128;27;19930;-76
2022/05/08 06:03:26;;;;;;;;;;;10.70;99.90;;;;;;5154814;27;19952;-76
2022/05/08 06:05:52;;;;;;;;;;;10.80;99.90;;;;;;5154354;27;19990;-76
2022/05/08 06:08:17;;;;;;;;;;;10.90;99.90;;;;;;5154093;27;19911;-76
2022/05/08 06:10:43;;;;;;;;;;;10.90;99.90;;;;;;5154460;27;20367;-76
2022/05/08 06:13:09;;;;;;;;;;;10.90;99.90;;;;;;5153796;27;19907;-76
2022/05/08 06:15:34;;;;;;;;;;;11.00;99.90;;;;;;5154760;27;19934;-76
2022/05/08 06:18:00;;;;;;;;;;;11.00;99.90;;;;;;5154080;27;19986;-76
2022/05/08 06:20:26;;;;;;;;;;;11.10;99.90;;;;;;5154091;27;19915;-76
2022/05/08 06:22:52;;;;;;;;;;;11.20;99.90;;;;;;5154453;27;20443;-76
2022/05/08 06:25:17;;;;;;;;;;;11.30;99.90;;;;;;5154032;27;20006;-76
2022/05/08 06:27:43;;;;;;;;;;;11.40;99.90;;;;;;5154508;27;19968;-76
2022/05/08 06:30:09;;;;;;;;;;;11.50;99.90;;;;;;5153509;27;19945;-76
2022/05/08 06:32:34;;;;;;;;;;;11.60;99.90;;;;;;5154288;27;19911;-76
2022/05/08 06:35:00;;;;;;;;;;;11.70;99.90;;;;;;5157224;27;19911;-76
2022/05/08 06:37:26;;;;;;;;;;;11.70;99.90;;;;;;5158840;27;20448;-76
2022/05/08 06:39:51;;;;;;;;;;;11.90;99.90;;;;;;5158573;27;19933;-76
2022/05/08 06:42:18;;;;;;;;;;;11.90;99.90;;;;;;5157909;27;19911;-75
2022/05/08 06:44:44;;;;;;;;;;;12.10;99.90;;;;;;5158571;27;19938;-76
2022/05/08 06:47:09;;;;;;;;;;;12.30;99.90;;;;;;5157603;27;20003;-75
2022/05/08 06:49:35;;;;;;;;;;;12.40;99.90;;;;;;5158211;27;19934;-75
2022/05/08 06:52:01;;;;;;;;;;;12.60;99.90;;;;;;5157709;27;19907;-76
2022/05/08 06:54:26;;;;;;;;;;;12.70;99.90;;;;;;5158184;27;19952;-75
2022/05/08 06:56:53;;;;;;;;;;;12.90;99.90;;;;;;5158129;27;19964;-75
2022/05/08 07:02:03;;;;;;;;;;;13.20;99.90;;;;;;5157391;27;19959;-76
2022/05/08 07:04:28;;;;;;;;;;;13.40;99.90;;;;;;5158038;27;19911;-76
2022/05/08 07:06:54;;;;;;;;;;;13.50;99.90;;;;;;5158170;27;19950;-75
2022/05/08 07:09:19;;;;;;;;;;;13.60;99.90;;;;;;5157430;27;19935;-76
2022/05/08 07:11:47;;;;;;;;;;;13.70;99.90;;;;;;5138910;27;19907;-76
2022/05/08 07:14:15;;;;;;;;;;;13.90;99.90;;;;;;5157193;27;19997;-76
2022/05/08 07:16:41;;;;;;;;;;;14.00;99.90;;;;;;5157886;27;19912;-76
2022/05/08 07:19:07;;;;;;;;;;;14.10;99.90;;;;;;5157180;27;19980;-76
2022/05/08 07:21:33;;;;;;;;;;;14.10;99.90;;;;;;5157652;27;19928;-75
2022/05/08 07:23:58;;;;;;;;;;;14.30;99.90;;;;;;5155500;27;20047;-75
2022/05/08 07:26:24;;;;;;;;;;;14.30;99.90;;;;;;5126942;27;19912;-75
2022/05/08 07:28:49;;;;;;;;;;;14.40;99.90;;;;;;5157134;27;19907;-75
2022/05/08 07:31:16;;;;;;;;;;;14.60;99.90;;;;;;5156240;27;20000;-75
2022/05/08 07:33:41;;;;;;;;;;;14.60;99.90;;;;;;5157298;27;19914;-76
2022/05/08 07:36:13;;;;;;;;;;;14.80;99.90;;;;;;5156691;27;19911;-75
2022/05/08 07:38:42;;;;;;;;;;;15.00;99.90;;;;;;5157481;27;20364;-76
2022/05/08 07:41:08;;;;;;;;;;;15.10;99.90;;;;;;5156693;27;19997;-75
2022/05/08 07:43:34;;;;;;;;;;;15.30;99.90;;;;;;5157541;27;20340;-75
2022/05/08 07:46:00;;;;;;;;;;;15.40;99.90;;;;;;5156001;27;20002;-75
2022/05/08 07:48:25;;;;;;;;;;;15.50;99.90;;;;;;5156935;27;19911;-75
2022/05/08 07:50:51;;;;;;;;;;;15.50;99.90;;;;;;5157477;27;20236;-75
2022/05/08 07:53:16;;;;;;;;;;;15.60;99.90;;;;;;5156455;27;19914;-75
2022/05/08 07:55:42;;;;;;;;;;;15.80;99.90;;;;;;5157271;27;20407;-75
2022/05/08 07:58:09;;;;;;;;;;;16.00;99.90;;;;;;5156004;27;20039;-75
2022/05/08 08:00:36;;;;;;;;;;;16.10;99.90;;;;;;5156874;27;19907;-75
2022/05/08 08:03:02;;;;;;;;;;;16.10;99.90;;;;;;5156209;27;20267;-75
2022/05/08 08:05:28;;;;;;;;;;;16.30;99.90;;;;;;5156955;27;19959;-76
2022/05/08 08:07:53;;;;;;;;;;;16.20;99.90;;;;;;5156740;27;20267;-76
2022/05/08 08:10:19;;;;;;;;;;;16.30;99.90;;;;;;5156146;27;19914;-76
2022/05/08 08:12:44;;;;;;;;;;;16.40;99.90;;;;;;5156336;27;19911;-75
2022/05/08 08:15:10;;;;;;;;;;;16.50;99.90;;;;;;5156115;27;19911;-75
2022/05/08 08:17:36;;;;;;;;;;;16.40;99.90;;;;;;5156500;27;20375;-75
2022/05/08 08:20:02;;;;;;;;;;;16.50;99.90;;;;;;5156283;27;19994;-76
2022/05/08 08:22:28;;;;;;;;;;;16.50;99.90;;;;;;5156194;27;19911;-75
2022/05/08 08:24:54;;;;;;;;;;;16.50;99.90;;;;;;5156409;27;20392;-75
2022/05/08 08:27:20;;;;;;;;;;;16.30;99.90;;;;;;5155652;27;19908;-75
2022/05/08 08:29:46;;;;;;;;;;;16.40;99.90;;;;;;5156215;27;20267;-76
2022/05/08 08:32:11;;;;;;;;;;;16.50;99.90;;;;;;5155623;27;20001;-75
2022/05/08 08:34:37;;;;;;;;;;;16.50;99.90;;;;;;5156205;27;19948;-76
2022/05/08 08:37:03;;;;;;;;;;;16.30;99.90;;;;;;5155643;27;20018;-75
2022/05/08 08:39:28;;;;;;;;;;;16.40;99.90;;;;;;5155896;27;19914;-75
2022/05/08 08:42:12;;;;;;;;;;;16.40;99.90;;;;;;5156045;27;19911;-76
2022/05/08 08:47:43;;;;;;;;;;;16.30;99.90;;;;;;5155234;27;19918;-76
2022/05/08 08:50:10;;;;;;;;;;;16.50;99.90;;;;;;5155290;27;19907;-75
2022/05/08 08:52:36;;;;;;;;;;;16.70;99.90;;;;;;5155721;27;19911;-76
2022/05/08 08:55:02;;;;;;;;;;;16.70;99.90;;;;;;5136932;27;19954;-76
2022/05/08 08:57:28;;;;;;;;;;;16.70;99.90;;;;;;5154522;27;19919;-76
2022/05/08 08:59:53;;;;;;;;;;;16.70;99.90;;;;;;5155528;27;20371;-76
2022/05/08 09:02:20;;;;;;;;;;;16.90;99.90;;;;;;5154695;27;19907;-76
2022/05/08 09:04:46;;;;;;;;;;;16.90;99.90;;;;;;5155596;27;19907;-76
2022/05/08 09:07:30;;;;;;;;;;;17.20;99.90;;;;;;5154963;27;19961;-75
2022/05/08 09:10:14;;;;;;;;;;;17.10;99.90;;;;;;5155832;27;20356;-76
2022/05/08 09:12:42;;;;;;;;;;;17.30;99.90;;;;;;5154738;27;19954;-76
2022/05/08 09:15:16;;;;;;;;;;;17.30;99.90;;;;;;5154875;27;19907;-75
2022/05/08 09:17:43;;;;;;;;;;;17.30;99.90;;;;;;5155000;27;19911;-76
2022/05/08 09:20:29;;;;;;;;;;;17.30;99.90;;;;;;5154638;27;19967;-75
2022/05/08 09:22:59;;;;;;;;;;;17.20;99.90;;;;;;5154468;27;19907;-76
2022/05/08 09:25:40;;;;;;;;;;;17.10;99.90;;;;;;5154918;27;20392;-75
2022/05/08 09:28:06;;;;;;;;;;;17.10;99.90;;;;;;5155129;27;19998;-75
2022/05/08 09:30:31;;;;;;;;;;;17.20;99.90;;;;;;5154716;27;20352;-75
2022/05/08 09:32:57;;;;;;;;;;;17.10;99.90;;;;;;5154973;27;19907;-76
2022/05/08 09:35:22;;;;;;;;;;;17.00;99.90;;;;;;5154492;27;19932;-75
2022/05/08 09:37:52;;;;;;;;;;;17.00;99.90;;;;;;5154947;27;19918;-76
2022/05/08 09:40:19;;;;;;;;;;;17.10;99.90;;;;;;5154368;27;19911;-75
2022/05/08 09:42:45;;;;;;;;;;;17.00;99.90;;;;;;5154923;27;19980;-76
2022/05/08 09:45:11;;;;;;;;;;;17.10;99.90;;;;;;5154209;27;19907;-76
2022/05/08 09:47:42;;;;;;;;;;;17.20;99.90;;;;;;5136246;27;19907;-76
2022/05/08 09:50:08;;;;;;;;;;;17.30;99.90;;;;;;5154693;27;20382;-75
2022/05/08 09:52:36;;;;;;;;;;;17.30;99.90;;;;;;5154611;27;19942;-75
2022/05/08 09:55:02;;;;;;;;;;;17.30;99.90;;;;;;5154424;27;19914;-76
2022/05/08 09:57:27;;;;;;;;;;;17.30;99.90;;;;;;5153719;27;20091;-76
2022/05/08 09:59:53;;;;;;;;;;;17.10;99.90;;;;;;5154281;27;20351;-75
2022/05/08 10:02:19;;;;;;;;;;;17.20;99.90;;;;;;5153784;27;19942;-75
2022/05/08 10:04:45;;;;;;;;;;;17.10;99.90;;;;;;5154551;27;19911;-76
2022/05/08 10:07:12;;;;;;;;;;;17.10;99.90;;;;;;5153994;27;19914;-75
2022/05/08 10:15:18;;;;;;;;;;;17.40;99.90;;;;;;5154208;27;19914;-75
2022/05/08 10:17:43;;;;;;;;;;;17.30;99.90;;;;;;5154422;27;19910;-75
2022/05/08 10:20:09;;;;;;;;;;;17.40;99.90;;;;;;5153975;27;19956;-75
2022/05/08 10:22:48;;;;;;;;;;;17.40;99.90;;;;;;5153865;27;19965;-75
2022/05/08 10:25:15;;;;;;;;;;;17.40;99.90;;;;;;5153862;27;19907;-75
2022/05/08 10:27:41;;;;;;;;;;;17.40;99.90;;;;;;5154418;27;19930;-76
2022/05/08 10:30:06;;;;;;;;;;;17.50;99.90;;;;;;5154273;27;20351;-75
2022/05/08 10:32:32;;;;;;;;;;;17.50;99.90;;;;;;5153530;27;19915;-76
2022/05/08 10:35:09;;;;;;;;;;;17.50;99.90;;;;;;5154340;27;19913;-75
2022/05/08 10:37:35;;;;;;;;;;;17.40;99.90;;;;;;5153690;27;19911;-75
2022/05/08 10:40:02;;;;;;;;;;;17.40;99.90;;;;;;5154361;27;20292;-76
2022/05/08 10:42:28;;;;;;;;;;;17.20;99.90;;;;;;5153329;27;19914;-75
2022/05/08 10:44:57;;;;;;;;;;;17.20;99.90;;;;;;5154294;27;19907;-75
2022/05/08 10:47:32;;;;;;;;;;;17.30;99.90;;;;;;5153645;27;19951;-75
2022/05/08 10:49:57;;;;;;;;;;;17.40;99.90;;;;;;5154222;27;20002;-76
2022/05/08 10:52:23;;;;;;;;;;;17.40;99.90;;;;;;5153249;27;19957;-76
2022/05/08 10:54:58;;;;;;;;;;;17.40;99.90;;;;;;5135581;27;19915;-76
2022/05/08 10:57:33;;;;;;;;;;;17.50;99.90;;;;;;5153320;27;19919;-76
2022/05/08 10:59:59;;;;;;;;;;;17.60;99.90;;;;;;5153972;27;19907;-76
2022/05/08 11:02:57;;;;;;;;;;;17.40;99.90;;;;;;5153095;27;20279;-75
2022/05/08 11:05:23;;;;;;;;;;;17.40;99.90;;;;;;5096302;27;19907;-76
2022/05/08 11:07:56;;;;;;;;;;;17.50;99.90;;;;;;5154012;27;19938;-76
2022/05/08 11:10:38;;;;;;;;;;;17.50;99.90;;;;;;5153186;27;20048;-75
2022/05/08 11:13:05;;;;;;;;;;;17.40;99.90;;;;;;5154002;27;19907;-75
2022/05/08 11:15:31;;;;;;;;;;;17.50;99.90;;;;;;5153351;27;20002;-76
2022/05/08 11:18:02;;;;;;;;;;;17.50;99.90;;;;;;5153932;27;19918;-76
2022/05/08 11:20:27;;;;;;;;;;;17.40;99.90;;;;;;5153930;27;19918;-76
2022/05/08 11:22:53;;;;;;;;;;;17.50;99.90;;;;;;5157394;27;19913;-76
2022/05/08 11:25:19;;;;;;;;;;;17.60;99.90;;;;;;5157116;27;19942;-75
2022/05/08 11:27:54;;;;;;;;;;;17.50;99.90;;;;;;5157521;27;20384;-76
2022/05/08 11:30:35;;;;;;;;;;;17.40;99.90;;;;;;5156813;27;19907;-76
2022/05/08 11:36:05;;;;;;;;;;;17.30;99.90;;;;;;5157314;27;19914;-76
2022/05/08 11:38:31;;;;;;;;;;;17.30;99.90;;;;;;5156615;27;19911;-76
2022/05/08 11:40:57;;;;;;;;;;;17.20;99.90;;;;;;5157116;27;19911;-76
2022/05/08 11:43:35;;;;;;;;;;;17.20;99.90;;;;;;5156435;27;19915;-76
2022/05/08 11:46:01;;;;;;;;;;;17.30;99.90;;;;;;5157587;27;19907;-76
2022/05/08 11:48:42;;;;;;;;;;;17.40;99.90;;;;;;5156278;27;20008;-76
2022/05/08 11:51:09;;;;;;;;;;;17.60;99.90;;;;;;5157189;27;19907;-76
2022/05/08 11:53:42;;;;;;;;;;;17.60;99.90;;;;;;5156311;27;19911;-76
2022/05/08 11:56:20;;;;;;;;;;;17.60;99.90;;;;;;5156458;27;19947;-76
2022/05/08 11:58:47;;;;;;;;;;;17.80;99.90;;;;;;5156568;27;19919;-76
2022/05/08 12:01:31;;;;;;;;;;;17.90;99.90;;;;;;5156363;27;20267;-76
2022/05/08 12:04:17;;;;;;;;;;;18.10;99.90;;;;;;5156860;27;20345;-76
2022/05/08 12:07:01;;;;;;;;;;;18.20;99.90;;;;;;5156479;27;20415;-76
2022/05/08 12:09:30;;;;;;;;;;;18.40;99.90;;;;;;5155987;27;19907;-76
2022/05/08 12:11:56;;;;;;;;;;;18.50;99.90;;;;;;5156467;27;19930;-76
2022/05/08 12:14:29;;;;;;;;;;;18.60;99.90;;;;;;5155938;27;20353;-75
2022/05/08 12:17:00;;;;;;;;;;;18.70;99.90;;;;;;5156498;27;20288;-76
2022/05/08 12:19:25;;;;;;;;;;;18.70;99.90;;;;;;5155987;27;19907;-76
2022/05/08 12:21:51;;;;;;;;;;;18.80;99.90;;;;;;5156161;27;19913;-76
2022/05/08 12:24:17;;;;;;;;;;;18.80;99.90;;;;;;5156389;27;20001;-76
2022/05/08 12:26:43;;;;;;;;;;;18.90;99.90;;;;;;5155746;27;19907;-76
2022/05/08 12:29:35;;;;;;;;;;;19.00;99.90;;;;;;5156342;27;19913;-76
2022/05/08 12:32:01;;;;;;;;;;;19.00;99.90;;;;;;5135428;27;19907;-76
2022/05/08 12:34:27;;;;;;;;;;;19.20;99.90;;;;;;5155299;27;20297;-75
2022/05/08 12:36:52;;;;;;;;;;;19.30;99.90;;;;;;5155938;27;19954;-76
2022/05/08 12:39:19;;;;;;;;;;;19.40;99.90;;;;;;5155843;27;20312;-75
2022/05/08 12:41:45;;;;;;;;;;;19.40;99.90;;;;;;5155911;27;19917;-76
2022/05/08 12:44:10;;;;;;;;;;;19.30;99.90;;;;;;5155719;27;19985;-76
2022/05/08 12:46:36;;;;;;;;;;;19.30;99.90;;;;;;5155186;27;19911;-76
2022/05/08 12:49:02;;;;;;;;;;;19.40;99.90;;;;;;5137075;27;19952;-76
2022/05/08 12:51:32;;;;;;;;;;;19.50;99.90;;;;;;5155262;27;19963;-76
2022/05/08 12:53:58;;;;;;;;;;;19.60;99.90;;;;;;5155786;27;19907;-76
2022/05/08 12:56:24;;;;;;;;;;;19.70;99.90;;;;;;5154761;27;19975;-76
2022/05/08 13:01:34;;;;;;;;;;;19.80;99.90;;;;;;5154555;27;19914;-76
2022/05/08 13:03:59;;;;;;;;;;;19.90;99.90;;;;;;5155177;27;20358;-76
2022/05/08 13:06:25;;;;;;;;;;;20.10;99.90;;;;;;5154632;27;19907;-76
2022/05/08 13:08:53;;;;;;;;;;;20.20;99.90;;;;;;5155515;27;19907;-77
2022/05/08 13:11:19;;;;;;;;;;;20.40;99.90;;;;;;5155331;27;19907;-76
2022/05/08 13:13:44;;;;;;;;;;;20.40;99.90;;;;;;5154428;27;19979;-77
2022/05/08 13:16:14;;;;;;;;;;;20.40;99.90;;;;;;5155181;27;20344;-76
2022/05/08 13:18:40;;;;;;;;;;;20.40;99.90;;;;;;5154655;27;20276;-76
2022/05/08 13:21:06;;;;;;;;;;;20.60;99.90;;;;;;5154912;27;19911;-77
2022/05/08 13:23:31;;;;;;;;;;;20.70;99.90;;;;;;5154564;27;19945;-76
2022/05/08 13:25:57;;;;;;;;;;;20.80;99.90;;;;;;5154696;27;19907;-76
2022/05/08 13:28:22;;;;;;;;;;;20.90;99.90;;;;;;5154833;27;19942;-75
2022/05/08 13:30:48;;;;;;;;;;;21.00;99.90;;;;;;5154444;27;20312;-77
2022/05/08 13:33:13;;;;;;;;;;;21.10;99.90;;;;;;5154670;27;19908;-76
2022/05/08 13:35:39;;;;;;;;;;;21.10;99.90;;;;;;5154282;27;19911;-76
2022/05/08 13:38:05;;;;;;;;;;;21.10;99.90;;;;;;5154688;27;19919;-76
2022/05/08 13:40:30;;;;;;;;;;;21.20;99.90;;;;;;5154147;27;19907;-76
2022/05/08 13:42:57;;;;;;;;;;;21.30;99.90;;;;;;5154355;27;19954;-76
2022/05/08 13:45:23;;;;;;;;;;;21.30;99.90;;;;;;5154484;27;19914;-76
2022/05/08 13:47:49;;;;;;;;;;;21.30;99.90;;;;;;5154067;27;20424;-76
2022/05/08 13:50:14;;;;;;;;;;;21.30;99.90;;;;;;5154506;27;20005;-77
2022/05/08 13:52:40;;;;;;;;;;;21.30;99.90;;;;;;5153890;27;19907;-78
2022/05/08 13:55:10;;;;;;;;;;;21.30;99.90;;;;;;5154081;27;19973;-77
2022/05/08 13:57:36;;;;;;;;;;;21.20;99.90;;;;;;5153408;27;19919;-77
2022/05/08 14:00:02;;;;;;;;;;;21.10;99.90;;;;;;5154334;27;19915;-77
2022/05/08 14:02:28;;;;;;;;;;;21.10;99.90;;;;;;5153315;27;20479;-77
2022/05/08 14:04:53;;;;;;;;;;;21.10;99.90;;;;;;5154557;27;19923;-78
2022/05/08 14:07:19;;;;;;;;;;;21.10;99.90;;;;;;5154103;27;19914;-77
2022/05/08 14:09:46;;;;;;;;;;;21.20;99.90;;;;;;5135152;27;19915;-77
2022/05/08 14:12:12;;;;;;;;;;;21.20;99.90;;;;;;5135770;27;19998;-77
2022/05/08 14:14:37;;;;;;;;;;;21.20;99.90;;;;;;5153570;27;19953;-78
2022/05/08 14:17:03;;;;;;;;;;;21.20;99.90;;;;;;5154361;27;20362;-77
2022/05/08 14:19:29;;;;;;;;;;;21.20;99.90;;;;;;5153466;27;19934;-77
2022/05/08 14:21:54;;;;;;;;;;;21.30;99.90;;;;;;5153893;27;19954;-77
2022/05/08 14:24:20;;;;;;;;;;;21.40;99.90;;;;;;5154123;27;19914;-77
2022/05/08 14:26:46;;;;;;;;;;;21.50;99.90;;;;;;5153992;27;19914;-78
2022/05/08 14:29:13;;;;;;;;;;;21.40;99.90;;;;;;5154180;27;20344;-77
2022/05/08 14:37:06;;;;;;;;;;;21.50;99.90;;;;;;5153909;27;19998;-78
2022/05/08 14:39:32;;;;;;;;;;;21.60;99.90;;;;;;5153729;27;20352;-77
2022/05/08 14:41:57;;;;;;;;;;;21.60;99.90;;;;;;5154110;27;20245;-78
2022/05/08 14:44:23;;;;;;;;;;;21.60;99.90;;;;;;5154299;27;19914;-78
2022/05/08 14:46:48;;;;;;;;;;;21.50;99.90;;;;;;5153681;27;19939;-78
2022/05/08 14:49:14;;;;;;;;;;;21.30;99.90;;;;;;5153968;27;19911;-78
2022/05/08 14:51:40;;;;;;;;;;;21.40;99.90;;;;;;5153439;27;19959;-77
2022/05/08 14:54:05;;;;;;;;;;;21.40;99.90;;;;;;5154173;27;19907;-78